Time;durP1;ratioP1;P1;durP2;ratioP2;P2;SDS_P1;SDS_P2;PMS_P1;PMS_P2;Temp;Humidity;BMP_temperature;BMP_pressure;BME280_temperature;BME280_humidity;BME280_pressure;Samples;Min_cycle;Max_cycle;Signal;HPM_P1;HPM_P2
2021/11/27 03:46:24;;;;;;;48.92;22.02;;;3.90;99.90;;;;;;5393430;23;20301;-82
2021/11/27 03:48:53;;;;;;;41.30;21.98;;;3.90;99.90;;;;;;4818464;29;20083;-82
2021/11/27 03:51:33;;;;;;;38.42;19.50;;;3.90;99.90;;;;;;4821424;29;20030;-82
2021/11/27 03:53:59;;;;;;;46.97;23.30;;;3.90;99.90;;;;;;4821728;29;20040;-82
2021/11/27 03:56:29;;;;;;;47.25;22.45;;;3.90;99.90;;;;;;4836356;29;20069;-82
2021/11/27 03:59:00;;;;;;;44.65;21.33;;;3.80;99.90;;;;;;4836512;29;20026;-82
2021/11/27 04:01:27;;;;;;;47.67;22.40;;;3.90;99.90;;;;;;4836250;29;20028;-81
2021/11/27 04:03:56;;;;;;;40.88;20.55;;;3.90;99.90;;;;;;4836198;29;20047;-82
2021/11/27 04:06:25;;;;;;;45.25;21.23;;;3.90;99.90;;;;;;4837173;29;20109;-82
2021/11/27 04:08:54;;;;;;;44.95;22.67;;;3.90;99.90;;;;;;4836602;29;20034;-82
2021/11/27 04:11:21;;;;;;;45.45;22.88;;;3.90;99.90;;;;;;4806624;29;20033;-82
2021/11/27 04:13:47;;;;;;;40.28;21.83;;;3.90;99.90;;;;;;4836066;29;20104;-82
2021/11/27 04:16:13;;;;;;;47.45;22.70;;;3.90;99.90;;;;;;4851161;29;20045;-82
2021/11/27 04:18:41;;;;;;;44.83;23.13;;;4.00;99.90;;;;;;4851449;29;20081;-82
2021/11/27 04:21:07;;;;;;;49.63;23.52;;;3.90;99.90;;;;;;4806420;29;20037;-82
2021/11/27 04:23:33;;;;;;;46.50;22.08;;;3.90;99.90;;;;;;4836067;29;20427;-82
2021/11/27 04:26:05;;;;;;;46.20;22.38;;;3.80;99.90;;;;;;4822285;29;20030;-81
2021/11/27 04:28:30;;;;;;;47.15;23.02;;;3.80;99.90;;;;;;4820966;29;20102;-82
2021/11/27 04:30:57;;;;;;;46.10;21.95;;;3.80;99.90;;;;;;4835919;29;20030;-82
2021/11/27 04:33:23;;;;;;;48.13;24.02;;;3.70;99.90;;;;;;4835992;29;20110;-82
2021/11/27 04:35:52;;;;;;;46.13;22.40;;;3.70;99.90;;;;;;4836367;29;20264;-82
2021/11/27 04:38:23;;;;;;;45.58;22.42;;;3.60;99.90;;;;;;4836538;29;20030;-82
2021/11/27 04:40:49;;;;;;;51.08;24.05;;;3.70;99.90;;;;;;4820806;29;20060;-82
2021/11/27 04:43:17;;;;;;;59.78;25.58;;;3.60;99.90;;;;;;4835937;29;20029;-82
2021/11/27 04:45:44;;;;;;;51.63;23.75;;;3.60;99.90;;;;;;4850598;29;21285;-81
2021/11/27 04:48:10;;;;;;;50.92;24.17;;;3.60;99.90;;;;;;4820805;29;20034;-81
2021/11/27 04:50:37;;;;;;;48.80;24.83;;;3.60;99.90;;;;;;4852201;29;20047;-82
2021/11/27 04:53:09;;;;;;;52.05;24.70;;;3.60;99.90;;;;;;4828457;29;20294;-81
2021/11/27 04:55:36;;;;;;;51.10;24.63;;;3.60;99.90;;;;;;4839584;29;20030;-81
2021/11/27 04:58:05;;;;;;;49.08;23.48;;;3.60;99.90;;;;;;4839750;29;20114;-82
2021/11/27 05:00:41;;;;;;;50.17;22.58;;;3.50;99.90;;;;;;4824336;29;20038;-81
2021/11/27 05:03:09;;;;;;;50.35;24.85;;;3.50;99.90;;;;;;4839536;29;20077;-81
2021/11/27 05:05:36;;;;;;;49.00;24.85;;;3.40;99.90;;;;;;4854689;29;20041;-81
2021/11/27 05:08:03;;;;;;;55.15;24.83;;;3.40;99.90;;;;;;4839249;29;20344;-81
2021/11/27 05:10:32;;;;;;;51.78;24.15;;;3.40;99.90;;;;;;4839361;29;20286;-81
2021/11/27 05:12:58;;;;;;;46.85;23.52;;;3.40;99.90;;;;;;4839128;29;20034;-81
2021/11/27 05:15:24;;;;;;;54.67;25.67;;;3.40;99.90;;;;;;4854438;29;20247;-80
2021/11/27 05:17:53;;;;;;;54.17;24.40;;;3.30;99.90;;;;;;4839314;29;20121;-81
2021/11/27 05:20:31;;;;;;;51.17;23.75;;;3.30;99.90;;;;;;4813367;29;20034;-81
2021/11/27 05:22:57;;;;;;;49.43;24.50;;;3.30;99.90;;;;;;4854604;29;20113;-81
2021/11/27 05:25:23;;;;;;;46.28;22.95;;;3.20;99.90;;;;;;4838864;29;20026;-81
2021/11/27 05:28:07;;;;;;;56.67;25.13;;;3.20;99.90;;;;;;4854475;29;20037;-81
2021/11/27 05:31:12;;;;;;;42.38;21.75;;;3.10;99.90;;;;;;4837845;29;20033;-80
2021/11/27 05:36:11;;;;;;;67.68;26.48;;;3.10;99.90;;;;;;4838988;29;20042;-80
2021/11/27 05:38:37;;;;;;;50.20;24.25;;;3.10;99.90;;;;;;4822926;29;20094;-81
2021/11/27 05:41:03;;;;;;;47.33;22.83;;;3.10;99.90;;;;;;4837971;29;20041;-80
2021/11/27 05:43:29;;;;;;;48.67;22.60;;;3.10;99.90;;;;;;4853492;29;20042;-80
2021/11/27 05:45:56;;;;;;;54.70;23.67;;;3.20;99.90;;;;;;4837872;29;20034;-80
2021/11/27 05:48:27;;;;;;;44.83;22.25;;;3.20;99.90;;;;;;4837843;29;20041;-80
2021/11/27 05:51:12;;;;;;;44.30;22.33;;;3.20;99.90;;;;;;4840277;29;20078;-80
2021/11/27 05:53:38;;;;;;;;;;;3.20;99.90;;;;;;4837895;29;20294;-80
2021/11/27 05:56:04;;;;;;;36.47;19.30;;;3.30;99.90;;;;;;4837767;29;19909;-79
2021/11/27 05:58:30;;;;;;;37.20;18.58;;;3.20;99.90;;;;;;4849370;29;20045;-79
2021/11/27 06:00:59;;;;;;;39.70;18.98;;;3.20;99.90;;;;;;4837507;29;20034;-79
2021/11/27 06:03:25;;;;;;;36.42;18.83;;;3.10;99.90;;;;;;4822441;29;20045;-79
2021/11/27 06:05:51;;;;;;;33.13;17.88;;;3.10;99.90;;;;;;4838081;29;20034;-79
2021/11/27 06:08:16;;;;;;;31.55;16.52;;;3.20;99.90;;;;;;4823046;29;20026;-79
2021/11/27 06:10:42;;;;;;;35.47;18.92;;;3.20;99.90;;;;;;4823097;29;20041;-79
2021/11/27 06:13:08;;;;;;;33.33;17.48;;;3.20;99.90;;;;;;4837938;29;20078;-79
2021/11/27 06:15:34;;;;;;;29.92;17.42;;;3.20;99.90;;;;;;4807912;29;20300;-79
2021/11/27 06:17:59;;;;;;;27.08;14.98;;;3.30;99.90;;;;;;4837782;29;20389;-79
2021/11/27 06:20:27;;;;;;;31.70;16.75;;;3.30;99.90;;;;;;4838017;29;20034;-79
2021/11/27 06:22:53;;;;;;;32.25;17.17;;;3.40;99.90;;;;;;4837754;29;20050;-79
2021/11/27 06:25:18;;;;;;;34.25;17.42;;;3.40;99.90;;;;;;4850181;29;20259;-79
2021/11/27 06:27:44;;;;;;;31.83;17.17;;;3.40;99.90;;;;;;4822538;29;20063;-79
2021/11/27 06:30:10;;;;;;;27.88;16.80;;;3.40;99.90;;;;;;4837810;29;20037;-79
2021/11/27 06:32:37;;;;;;;30.48;17.45;;;3.40;99.90;;;;;;4822487;29;20241;-79
2021/11/27 06:35:03;;;;;;;29.33;17.10;;;3.50;99.90;;;;;;4837716;29;20360;-79
2021/11/27 06:37:29;;;;;;;32.97;18.00;;;3.50;99.90;;;;;;4807859;29;20029;-79
2021/11/27 06:39:59;;;;;;;29.15;16.95;;;3.50;99.90;;;;;;4822681;29;20222;-78
2021/11/27 06:42:28;;;;;;;32.70;18.15;;;3.50;99.90;;;;;;4808321;29;20045;-78
2021/11/27 06:44:58;;;;;;;39.28;20.52;;;3.60;99.90;;;;;;4852750;29;20074;-79
2021/11/27 06:47:28;;;;;;;35.88;19.23;;;3.60;99.90;;;;;;4836087;29;20357;-79
2021/11/27 06:49:54;;;;;;;40.95;20.85;;;3.60;99.90;;;;;;4850199;29;20030;-79
2021/11/27 06:52:20;;;;;;;33.30;18.00;;;3.70;99.90;;;;;;4803863;29;20380;-79
2021/11/27 06:54:46;;;;;;;32.50;17.63;;;3.70;99.90;;;;;;4847379;29;20048;-79
2021/11/27 06:57:12;;;;;;;32.20;17.77;;;3.70;99.90;;;;;;4849953;29;20030;-79
2021/11/27 06:59:39;;;;;;;31.05;17.05;;;3.70;99.90;;;;;;4850485;29;20037;-79
2021/11/27 07:02:28;;;;;;;35.13;18.77;;;3.70;99.90;;;;;;4862802;29;20060;-80
2021/11/27 07:05:12;;;;;;;37.97;20.27;;;3.70;99.90;;;;;;4856393;29;20052;-79
2021/11/27 07:07:48;;;;;;;39.60;20.90;;;3.60;99.90;;;;;;4826335;29;20052;-79
2021/11/27 07:10:37;;;;;;;46.05;22.67;;;3.60;99.90;;;;;;4806925;29;20043;-79
2021/11/27 07:13:12;;;;;;;43.35;23.40;;;3.60;99.90;;;;;;4811421;29;20654;-79
2021/11/27 07:15:39;;;;;;;38.60;21.50;;;3.70;99.90;;;;;;4789028;30;20043;-79
2021/11/27 07:18:04;;;;;;;50.10;23.73;;;3.70;99.90;;;;;;4816832;29;20065;-79
2021/11/27 07:20:30;;;;;;;48.90;25.67;;;3.60;99.90;;;;;;4780787;30;20047;-79
2021/11/27 07:22:56;;;;;;;58.47;29.67;;;3.70;99.90;;;;;;4780759;30;20168;-79
2021/11/27 07:25:22;;;;;;;54.53;28.30;;;3.60;99.90;;;;;;4765859;30;20344;-79
2021/11/27 07:28:11;;;;;;;60.92;30.08;;;3.60;99.90;;;;;;4736350;30;20069;-79
2021/11/27 07:30:37;;;;;;;56.42;27.77;;;3.60;99.90;;;;;;4759975;30;20168;-79
2021/11/27 07:33:03;;;;;;;44.90;23.40;;;3.70;99.90;;;;;;4758121;30;20164;-79
2021/11/27 07:35:29;;;;;;;50.35;26.85;;;3.80;99.90;;;;;;4773865;30;20048;-79
2021/11/27 07:37:55;;;;;;;43.75;22.15;;;3.80;99.90;;;;;;4774381;30;20040;-79
2021/11/27 07:40:22;;;;;;;44.42;21.23;;;3.90;99.90;;;;;;4745593;30;20123;-80
2021/11/27 07:42:48;;;;;;;41.33;22.35;;;3.90;99.90;;;;;;4759076;30;20119;-80
2021/11/27 07:45:34;;;;;;;45.38;24.08;;;3.90;99.90;;;;;;4757406;30;20059;-79
2021/11/27 07:48:12;;;;;;;44.20;22.48;;;3.90;99.90;;;;;;4796039;29;20230;-80
2021/11/27 07:51:05;;;;;;;49.53;25.98;;;3.90;99.90;;;;;;4782097;30;20043;-80
2021/11/27 07:53:43;;;;;;;71.25;37.35;;;3.90;99.90;;;;;;4766255;30;20084;-79
2021/11/27 07:56:11;;;;;;;60.90;32.45;;;3.90;99.90;;;;;;4777964;30;20074;-79
2021/11/27 07:58:41;;;;;;;52.75;25.70;;;3.90;99.90;;;;;;4765343;30;20111;-80
2021/11/27 08:01:07;;;;;;;45.83;24.85;;;3.90;99.90;;;;;;4777096;30;20035;-79
2021/11/27 08:03:33;;;;;;;42.87;23.20;;;3.90;99.90;;;;;;4793889;29;20341;-80
2021/11/27 08:05:59;;;;;;;41.97;23.80;;;3.90;99.90;;;;;;4818821;29;20066;-80
2021/11/27 08:08:25;;;;;;;39.37;22.40;;;4.00;99.90;;;;;;4800160;29;20770;-81
2021/11/27 08:10:51;;;;;;;46.58;24.73;;;4.00;99.90;;;;;;4828852;29;20053;-82
2021/11/27 08:13:17;;;;;;;48.35;24.38;;;4.00;99.90;;;;;;4800732;29;20675;-82
2021/11/27 08:15:43;;;;;;;47.35;24.48;;;4.00;99.90;;;;;;4816060;29;20068;-83
2021/11/27 08:18:09;;;;;;;46.22;22.33;;;3.90;99.90;;;;;;4821899;29;20053;-82
2021/11/27 08:20:35;;;;;;;43.20;23.45;;;3.90;99.90;;;;;;4786422;29;20047;-83
2021/11/27 08:23:01;;;;;;;44.97;23.70;;;3.90;99.90;;;;;;4831347;29;20057;-83
2021/11/27 08:25:27;;;;;;;38.87;22.37;;;3.90;99.90;;;;;;4800869;29;20373;-82
2021/11/27 08:27:53;;;;;;;45.05;22.25;;;4.10;99.90;;;;;;4841429;29;20058;-83
2021/11/27 08:30:19;;;;;;;39.10;19.65;;;4.20;99.90;;;;;;4835309;29;20041;-83
2021/11/27 08:32:49;;;;;;;43.45;19.40;;;4.20;99.90;;;;;;4831248;29;20048;-83
2021/11/27 08:35:15;;;;;;;36.22;19.50;;;4.20;99.90;;;;;;4833979;29;20093;-83
2021/11/27 08:37:41;;;;;;;41.65;20.95;;;4.20;99.90;;;;;;4830493;29;20034;-83
2021/11/27 08:40:08;;;;;;;36.75;20.40;;;4.30;99.90;;;;;;4829500;29;20026;-83
2021/11/27 08:42:34;;;;;;;39.97;20.33;;;4.40;99.90;;;;;;4833139;29;20025;-83
2021/11/27 08:45:00;;;;;;;37.83;20.20;;;4.50;99.90;;;;;;4844047;29;20274;-83
2021/11/27 08:47:26;;;;;;;35.40;18.70;;;4.60;99.90;;;;;;4844205;29;20098;-83
2021/11/27 08:49:52;;;;;;;33.30;17.73;;;4.50;99.90;;;;;;4830762;29;20170;-83
2021/11/27 08:52:19;;;;;;;31.30;18.15;;;4.60;99.90;;;;;;4816752;29;20041;-83
2021/11/27 08:54:45;;;;;;;27.52;16.95;;;4.50;99.90;;;;;;4828937;29;20055;-83
2021/11/27 08:57:11;;;;;;;27.30;15.77;;;4.40;99.90;;;;;;4834188;29;20050;-83
2021/11/27 08:59:36;;;;;;;30.33;16.67;;;4.40;99.90;;;;;;4803665;29;20045;-83
2021/11/27 09:02:04;;;;;;;30.77;17.52;;;4.40;99.90;;;;;;4804699;29;20232;-83
2021/11/27 09:04:30;;;;;;;27.55;16.33;;;4.40;99.90;;;;;;4835120;29;20057;-83
2021/11/27 09:06:56;;;;;;;27.95;15.80;;;4.30;99.90;;;;;;4835171;29;20170;-83
2021/11/27 09:09:22;;;;;;;33.03;18.05;;;4.30;99.90;;;;;;4834852;29;20038;-83
2021/11/27 09:11:49;;;;;;;30.65;17.38;;;4.30;99.90;;;;;;4834980;29;20069;-83
2021/11/27 09:14:17;;;;;;;28.35;16.48;;;4.40;99.90;;;;;;4850002;29;20056;-84
2021/11/27 09:16:43;;;;;;;26.08;16.02;;;4.50;99.90;;;;;;4834559;29;20045;-83
2021/11/27 09:19:09;;;;;;;29.43;12.00;;;4.70;99.90;;;;;;4819049;29;20042;-84
2021/11/27 09:21:36;;;;;;;29.60;17.60;;;4.70;99.90;;;;;;4848955;29;20042;-84
2021/11/27 09:24:03;;;;;;;34.83;17.60;;;4.80;99.90;;;;;;4816471;29;20404;-84
2021/11/27 09:26:29;;;;;;;33.53;19.13;;;4.90;99.90;;;;;;4834373;29;20053;-84
2021/11/27 09:28:55;;;;;;;28.60;17.57;;;4.70;99.90;;;;;;4834463;29;20352;-84
2021/11/27 09:31:21;;;;;;;29.73;18.58;;;4.70;99.90;;;;;;4831290;29;20275;-83
2021/11/27 09:33:47;;;;;;;26.80;16.83;;;4.80;99.90;;;;;;4819415;29;20038;-83
2021/11/27 09:36:15;;;;;;;33.83;20.13;;;4.80;99.90;;;;;;4849420;29;20367;-83
2021/11/27 09:38:43;;;;;;;31.75;19.20;;;4.70;99.90;;;;;;4807666;29;20041;-83
2021/11/27 09:41:17;;;;;;;36.17;19.98;;;4.70;99.90;;;;;;4853189;29;20036;-83
2021/11/27 09:43:46;;;;;;;38.42;20.92;;;4.70;99.90;;;;;;4838141;29;20217;-83
2021/11/27 09:46:15;;;;;;;42.83;22.50;;;4.70;99.90;;;;;;4853685;29;20041;-83
2021/11/27 09:48:46;;;;;;;30.33;19.08;;;4.70;99.90;;;;;;4837374;29;20384;-83
2021/11/27 09:51:12;;;;;;;30.98;19.17;;;4.60;99.90;;;;;;4835955;29;20042;-83
2021/11/27 09:53:39;;;;;;;33.23;20.13;;;4.70;99.90;;;;;;4837684;29;20086;-83
2021/11/27 09:56:07;;;;;;;38.10;21.52;;;4.70;99.90;;;;;;4821858;29;20041;-83
2021/11/27 09:58:33;;;;;;;33.08;20.38;;;4.70;99.90;;;;;;4852613;29;20058;-83
2021/11/27 10:01:04;;;;;;;32.08;19.08;;;4.80;99.90;;;;;;4843385;29;20053;-83
2021/11/27 10:03:31;;;;;;;31.48;19.05;;;4.90;99.90;;;;;;4845946;29;20159;-82
2021/11/27 10:05:58;;;;;;;29.38;17.88;;;4.90;99.90;;;;;;4834743;29;20235;-83
2021/11/27 10:08:24;;;;;;;30.33;16.92;;;5.00;99.90;;;;;;4852455;29;20066;-83
2021/11/27 10:10:51;;;;;;;29.20;16.27;;;5.10;99.90;;;;;;4837503;29;20109;-83
2021/11/27 10:13:22;;;;;;;28.73;16.50;;;5.10;99.90;;;;;;4837684;29;20034;-83
2021/11/27 10:15:48;;;;;;;24.25;14.75;;;5.20;99.90;;;;;;4846989;29;20086;-82
2021/11/27 10:18:25;;;;;;;24.98;15.23;;;5.20;99.90;;;;;;4852529;29;20033;-83
2021/11/27 10:21:16;;;;;;;25.77;13.98;;;5.20;99.90;;;;;;4846778;29;20233;-82
2021/11/27 10:23:42;;;;;;;23.52;14.45;;;5.20;99.90;;;;;;4852235;29;20038;-82
2021/11/27 10:26:08;;;;;;;20.08;12.02;;;5.10;99.90;;;;;;4821780;29;20034;-82
2021/11/27 10:28:34;;;;;;;20.45;12.15;;;5.10;99.90;;;;;;4821652;29;20033;-82
2021/11/27 10:31:05;;;;;;;22.98;13.80;;;5.00;99.90;;;;;;4852025;29;20105;-82
2021/11/27 10:33:37;;;;;;;19.52;12.32;;;5.10;99.90;;;;;;4837543;29;20254;-82
2021/11/27 10:36:04;;;;;;;21.75;13.50;;;5.10;99.90;;;;;;4837840;29;20057;-83
2021/11/27 10:38:51;;;;;;;22.05;12.68;;;5.10;99.90;;;;;;4836781;29;20061;-82
2021/11/27 10:41:18;;;;;;;23.13;13.50;;;5.10;99.90;;;;;;4852233;29;20222;-82
2021/11/27 10:44:02;;;;;;;;;;;5.10;99.90;;;;;;4831351;29;20050;-82
2021/11/27 10:46:36;;;;;;;26.10;13.80;;;5.20;99.90;;;;;;4830182;29;20230;-82
2021/11/27 10:49:04;;;;;;;22.90;11.77;;;5.20;99.90;;;;;;4843521;29;20219;-82
2021/11/27 10:51:31;;;;;;;17.42;10.88;;;5.20;99.90;;;;;;4830110;29;20025;-82
2021/11/27 10:54:03;;;;;;;20.08;12.82;;;5.20;99.90;;;;;;4834490;29;20063;-82
2021/11/27 10:56:47;;;;;;;21.58;15.02;;;5.10;99.90;;;;;;4852676;29;20034;-82
2021/11/27 10:59:15;;;;;;;16.92;11.75;;;5.10;99.90;;;;;;4836157;29;20041;-82
2021/11/27 11:02:10;;;;;;;17.90;11.23;;;5.20;99.90;;;;;;4847444;29;20030;-82
2021/11/27 11:04:37;;;;;;;23.83;11.27;;;5.20;99.90;;;;;;4830302;29;20030;-82
2021/11/27 11:07:32;;;;;;;20.20;11.77;;;5.30;99.90;;;;;;4819048;29;20101;-82
2021/11/27 11:10:25;;;;;;;20.40;11.80;;;5.30;99.90;;;;;;4833624;29;20030;-83
2021/11/27 11:12:58;;;;;;;20.02;12.32;;;5.30;99.90;;;;;;4849361;29;20051;-82
2021/11/27 11:15:30;;;;;;;27.88;13.68;;;5.30;99.90;;;;;;4847329;29;20057;-82
2021/11/27 11:18:10;;;;;;;25.75;14.43;;;5.30;99.90;;;;;;4818806;29;20414;-82
2021/11/27 11:20:37;;;;;;;27.02;15.90;;;5.40;99.90;;;;;;4814194;29;20034;-82
2021/11/27 11:23:06;;;;;;;22.50;13.10;;;5.40;99.90;;;;;;4834193;29;20034;-82
2021/11/27 11:25:35;;;;;;;22.30;12.68;;;5.40;99.90;;;;;;4845965;29;20038;-82
2021/11/27 11:28:15;;;;;;;23.17;12.55;;;5.50;99.90;;;;;;4817060;29;20121;-82
2021/11/27 11:30:44;;;;;;;27.63;19.88;;;5.50;99.90;;;;;;4846678;29;20033;-82
2021/11/27 11:33:12;;;;;;;25.33;14.63;;;5.50;99.90;;;;;;4832659;29;20280;-82
2021/11/27 11:35:38;;;;;;;20.05;12.02;;;5.50;99.90;;;;;;4847490;29;20105;-82
2021/11/27 11:38:13;;;;;;;25.90;13.40;;;5.40;99.90;;;;;;4834983;29;20298;-82
2021/11/27 11:40:42;;;;;;;24.23;13.32;;;5.30;99.90;;;;;;4850422;29;20237;-82
2021/11/27 11:43:09;;;;;;;19.83;12.15;;;5.10;99.90;;;;;;4834913;29;20037;-82
2021/11/27 11:45:36;;;;;;;25.08;12.32;;;5.00;99.90;;;;;;4833630;29;20037;-81
2021/11/27 11:48:05;;;;;;;23.73;13.10;;;5.20;99.90;;;;;;4837739;29;20354;-81
2021/11/27 11:50:35;;;;;;;21.40;13.40;;;5.30;99.90;;;;;;4829446;29;20097;-81
2021/11/27 11:53:01;;;;;;;21.63;12.93;;;5.40;99.90;;;;;;4830295;29;20057;-81
2021/11/27 11:55:27;;;;;;;22.85;13.70;;;5.40;99.90;;;;;;4845553;29;20386;-81
2021/11/27 11:57:55;;;;;;;20.20;11.80;;;5.50;99.90;;;;;;4835763;29;20038;-81
2021/11/27 12:00:27;;;;;;;22.35;12.40;;;5.50;99.90;;;;;;4830668;29;20326;-81
2021/11/27 12:03:12;;;;;;;21.25;12.63;;;5.50;99.90;;;;;;4844287;29;20030;-81
2021/11/27 12:05:53;;;;;;;17.00;11.65;;;5.60;99.90;;;;;;4838967;29;20060;-80
2021/11/27 12:08:48;;;;;;;20.17;13.35;;;5.40;99.90;;;;;;4847624;29;20053;-80
2021/11/27 12:11:42;;;;;;;20.92;11.85;;;5.40;99.90;;;;;;4837642;29;20034;-80
2021/11/27 12:14:34;;;;;;;20.13;13.02;;;5.30;99.90;;;;;;4832992;29;20243;-80
2021/11/27 12:17:26;;;;;;;17.60;11.52;;;5.10;99.90;;;;;;4832218;29;20211;-80
2021/11/27 12:19:58;;;;;;;17.30;11.75;;;5.20;99.90;;;;;;4832465;29;20052;-80
2021/11/27 12:22:44;;;;;;;19.75;11.77;;;5.30;99.90;;;;;;4846212;29;20046;-80
2021/11/27 12:25:14;;;;;;;20.17;12.55;;;5.40;99.90;;;;;;4810966;29;20043;-80
2021/11/27 12:28:02;;;;;;;19.05;10.88;;;5.40;99.90;;;;;;4791015;29;20035;-80
2021/11/27 12:30:44;;;;;;;20.20;11.18;;;5.30;99.90;;;;;;4805177;29;20068;-80
2021/11/27 12:33:41;;;;;;;19.88;11.25;;;5.20;99.90;;;;;;4797618;29;20027;-80
2021/11/27 12:36:22;;;;;;;19.92;11.45;;;5.20;99.90;;;;;;4798221;29;20099;-80
2021/11/27 12:39:04;;;;;;;22.15;12.07;;;5.20;99.90;;;;;;4797474;29;20054;-80
2021/11/27 12:41:38;;;;;;;19.73;12.45;;;5.30;99.90;;;;;;4802876;29;20178;-80
2021/11/27 12:44:20;;;;;;;20.73;12.00;;;5.40;99.90;;;;;;4812771;29;20246;-80
2021/11/27 12:46:48;;;;;;;23.73;12.73;;;5.30;99.90;;;;;;4797689;29;20050;-80
2021/11/27 12:49:33;;;;;;;20.98;11.75;;;5.30;99.90;;;;;;4797304;29;20301;-80
2021/11/27 12:52:10;;;;;;;21.35;12.48;;;5.30;99.90;;;;;;4798037;29;20042;-80
2021/11/27 12:54:53;;;;;;;22.67;12.85;;;5.30;99.90;;;;;;4812516;29;20067;-80
2021/11/27 12:57:27;;;;;;;28.25;13.52;;;5.30;99.90;;;;;;4768807;30;20075;-80
2021/11/27 13:00:06;;;;;;;26.77;14.93;;;5.30;99.90;;;;;;4778127;30;20044;-80
2021/11/27 13:02:32;;;;;;;24.70;13.38;;;5.30;99.90;;;;;;4811816;29;20317;-81
2021/11/27 13:04:58;;;;;;;25.42;14.50;;;5.20;99.90;;;;;;4824695;29;20040;-80
2021/11/27 13:07:28;;;;;;;22.55;13.70;;;5.20;99.90;;;;;;4835084;29;20129;-81
2021/11/27 13:10:01;;;;;;;25.02;13.48;;;5.30;99.90;;;;;;4834549;29;20042;-80
2021/11/27 13:12:27;;;;;;;27.75;15.02;;;5.30;99.90;;;;;;4833404;29;20049;-80
2021/11/27 13:14:53;;;;;;;26.50;13.95;;;5.40;99.90;;;;;;4820644;29;20083;-80
2021/11/27 13:17:19;;;;;;;29.73;15.45;;;5.30;99.70;;;;;;4848458;29;20030;-80
2021/11/27 13:19:47;;;;;;;26.80;14.68;;;5.30;99.90;;;;;;4823107;29;20408;-80
2021/11/27 13:22:20;;;;;;;24.58;13.23;;;5.30;99.90;;;;;;4838244;29;20042;-79
2021/11/27 13:25:08;;;;;;;23.13;13.88;;;5.30;99.80;;;;;;4853345;29;20067;-79
2021/11/27 13:27:36;;;;;;;29.48;15.68;;;5.30;99.90;;;;;;4837689;29;20026;-79
2021/11/27 13:30:07;;;;;;;34.25;18.27;;;5.30;99.80;;;;;;4837822;29;20033;-79
2021/11/27 13:32:54;;;;;;;33.20;18.15;;;5.10;99.90;;;;;;4851812;29;20060;-79
2021/11/27 13:35:22;;;;;;;40.38;23.90;;;5.00;99.90;;;;;;4853402;29;20052;-79
2021/11/27 13:37:57;;;;;;;35.67;21.25;;;5.00;99.90;;;;;;4853163;29;20026;-79
2021/11/27 13:40:36;;;;;;;39.38;22.95;;;5.00;99.90;;;;;;4852963;29;20061;-79
2021/11/27 13:43:12;;;;;;;38.30;20.58;;;5.00;99.90;;;;;;4852958;29;20101;-79
2021/11/27 13:45:40;;;;;;;33.30;17.50;;;5.00;99.90;;;;;;4837364;29;20114;-79
2021/11/27 13:48:07;;;;;;;;;;;4.90;99.90;;;;;;4837950;29;20074;-79
2021/11/27 13:50:47;;;;;;;50.78;25.63;;;4.90;99.90;;;;;;4852850;29;19971;-79
2021/11/27 13:53:14;;;;;;;73.78;30.75;;;4.90;99.90;;;;;;4837618;29;20448;-79
2021/11/27 13:55:48;;;;;;;44.85;21.95;;;4.80;99.90;;;;;;4837597;29;20041;-79
2021/11/27 13:58:18;;;;;;;46.42;23.10;;;4.70;99.90;;;;;;4837519;29;20230;-79
2021/11/27 14:00:44;;;;;;;43.60;21.73;;;4.70;99.90;;;;;;4852637;29;20051;-79
2021/11/27 14:07:55;;;;;;;;;;;;;;;;;;;;;
2021/11/27 14:11:10;;;;;;;51.40;22.10;;;4.60;99.90;;;;;;4789023;30;20335;-79
2021/11/27 14:14:04;;;;;;;43.55;20.75;;;4.50;99.90;;;;;;4779808;30;20046;-79
2021/11/27 14:16:59;;;;;;;39.42;19.58;;;4.50;99.90;;;;;;4782460;30;20043;-79
2021/11/27 14:19:27;;;;;;;37.40;20.70;;;4.50;99.90;;;;;;4769160;30;20331;-79
2021/11/27 14:22:14;;;;;;;38.88;20.50;;;4.50;99.90;;;;;;4769540;29;20126;-79
2021/11/27 14:24:47;;;;;;;40.17;22.05;;;4.50;99.90;;;;;;4785134;29;20311;-79
2021/11/27 14:27:26;;;;;;;39.17;20.60;;;4.50;99.90;;;;;;4748269;30;20292;-79
2021/11/27 14:30:20;;;;;;;57.75;37.53;;;4.50;99.90;;;;;;4781392;29;20062;-79
2021/11/27 14:33:20;;;;;;;42.73;24.03;;;4.50;99.90;;;;;;4796563;29;20071;-79
2021/11/27 14:36:25;;;;;;;48.80;20.63;;;4.50;99.90;;;;;;4817672;29;20104;-79
2021/11/27 14:39:35;;;;;;;37.50;19.85;;;4.50;99.90;;;;;;4741374;30;20056;-79
2021/11/27 14:42:10;;;;;;;47.47;25.05;;;4.50;99.90;;;;;;4700920;30;20047;-79
2021/11/27 14:44:42;;;;;;;70.85;37.95;;;4.50;99.90;;;;;;4672471;30;20054;-79
2021/11/27 14:47:12;;;;;;;51.83;28.17;;;4.50;99.90;;;;;;4686623;30;20049;-79
2021/11/27 14:49:48;;;;;;;55.67;33.10;;;4.50;99.90;;;;;;4707159;30;20049;-79
2021/11/27 14:52:21;;;;;;;41.50;22.33;;;4.50;99.90;;;;;;4721761;30;20466;-79
2021/11/27 14:54:56;;;;;;;47.33;24.48;;;4.50;99.90;;;;;;4688459;30;20042;-79
2021/11/27 14:57:35;;;;;;;47.53;24.58;;;4.50;99.90;;;;;;4702789;30;20060;-79
2021/11/27 15:00:21;;;;;;;43.90;25.45;;;4.50;99.90;;;;;;4704097;30;20113;-79
2021/11/27 15:02:54;;;;;;;48.00;24.15;;;4.40;99.90;;;;;;4662116;30;20042;-80
2021/11/27 15:05:30;;;;;;;45.92;25.48;;;4.50;99.90;;;;;;4697637;30;20042;-79
2021/11/27 15:07:57;;;;;;;44.13;22.88;;;4.40;99.90;;;;;;4672998;30;20231;-79
2021/11/27 15:10:30;;;;;;;45.85;25.67;;;4.40;99.90;;;;;;4659732;30;20118;-79
2021/11/27 15:13:02;;;;;;;47.78;25.83;;;4.40;99.90;;;;;;4655457;30;20338;-79
2021/11/27 15:15:30;;;;;;;45.97;25.00;;;4.40;99.90;;;;;;4637424;30;20159;-79
2021/11/27 15:18:01;;;;;;;45.95;22.95;;;4.50;99.90;;;;;;4664220;30;20050;-79
2021/11/27 15:20:30;;;;;;;43.42;22.33;;;4.40;99.90;;;;;;4664779;30;20050;-79
2021/11/27 15:23:00;;;;;;;43.45;22.58;;;4.30;99.90;;;;;;4701476;30;20202;-79
2021/11/27 15:25:26;;;;;;;74.93;49.72;;;4.30;99.90;;;;;;4693236;30;20047;-78
2021/11/27 15:27:53;;;;;;;71.90;47.40;;;4.20;99.90;;;;;;4694310;30;20061;-78
2021/11/27 15:30:19;;;;;;;54.80;32.10;;;4.20;99.90;;;;;;4724752;30;20340;-79
2021/11/27 15:32:46;;;;;;;51.47;28.48;;;4.20;99.90;;;;;;4741889;30;20293;-78
2021/11/27 15:35:21;;;;;;;48.72;24.73;;;4.20;99.90;;;;;;4729338;30;20068;-77
2021/11/27 15:37:49;;;;;;;40.17;22.40;;;4.20;99.90;;;;;;4743966;29;20161;-78
2021/11/27 15:40:17;;;;;;;42.47;23.38;;;4.10;99.90;;;;;;4767392;29;20034;-81
2021/11/27 15:42:44;;;;;;;46.78;25.27;;;4.20;99.90;;;;;;4795920;29;20030;-78
2021/11/27 15:45:13;;;;;;;42.63;22.40;;;4.20;99.90;;;;;;4782298;29;20237;-79
2021/11/27 15:47:42;;;;;;;74.50;46.08;;;4.20;99.90;;;;;;4812527;29;20116;-79
2021/11/27 15:50:08;;;;;;;42.78;26.13;;;4.20;99.90;;;;;;4801363;29;20038;-78
2021/11/27 15:52:36;;;;;;;42.45;22.95;;;4.30;99.90;;;;;;4816263;29;20138;-79
2021/11/27 15:55:05;;;;;;;45.03;25.05;;;4.30;99.90;;;;;;4829039;29;20288;-79
2021/11/27 15:57:33;;;;;;;42.00;22.92;;;4.40;99.90;;;;;;4813191;29;20054;-79
2021/11/27 16:00:00;;;;;;;45.70;25.02;;;4.40;99.90;;;;;;4815266;29;20096;-78
2021/11/27 16:02:39;;;;;;;41.90;25.75;;;4.40;99.90;;;;;;4807595;29;20045;-79
2021/11/27 16:05:13;;;;;;;45.55;24.83;;;4.40;99.90;;;;;;4820004;29;20140;-78
2021/11/27 16:07:40;;;;;;;42.92;24.15;;;4.50;99.90;;;;;;4816598;29;20066;-79
2021/11/27 16:10:13;;;;;;;42.72;23.35;;;4.50;99.90;;;;;;4798087;29;20043;-78
2021/11/27 16:12:39;;;;;;;40.90;21.48;;;4.50;99.90;;;;;;4812419;29;20157;-78
2021/11/27 16:15:05;;;;;;;46.00;23.65;;;4.50;99.90;;;;;;4784569;29;20054;-79
2021/11/27 16:17:35;;;;;;;39.63;22.20;;;4.50;99.90;;;;;;4802424;29;20062;-79
2021/11/27 16:20:04;;;;;;;45.05;23.55;;;4.60;99.90;;;;;;4813619;29;20284;-79
2021/11/27 16:22:31;;;;;;;44.15;25.17;;;4.60;99.90;;;;;;4814175;29;20047;-80
2021/11/27 16:25:03;;;;;;;46.78;24.67;;;4.70;99.90;;;;;;4787575;29;20099;-80
2021/11/27 16:27:39;;;;;;;41.10;23.02;;;4.70;99.90;;;;;;4788534;29;20040;-79
2021/11/27 16:30:10;;;;;;;49.63;25.67;;;4.70;99.90;;;;;;4772954;30;20082;-79
2021/11/27 16:32:41;;;;;;;43.60;23.98;;;4.70;99.90;;;;;;4817156;29;20043;-79
2021/11/27 16:35:11;;;;;;;43.67;24.02;;;4.80;99.90;;;;;;4759439;30;20109;-81
2021/11/27 16:37:37;;;;;;;39.83;22.35;;;4.80;99.90;;;;;;4792481;30;20334;-79
2021/11/27 16:40:04;;;;;;;37.95;21.98;;;4.80;99.90;;;;;;4781376;29;20067;-79
2021/11/27 16:42:32;;;;;;;47.05;23.95;;;4.80;99.90;;;;;;4793838;29;20055;-79
2021/11/27 16:44:59;;;;;;;42.47;23.92;;;4.90;99.90;;;;;;4751860;30;20036;-79
2021/11/27 16:47:26;;;;;;;51.13;33.95;;;4.70;99.90;;;;;;4779383;30;20040;-79
2021/11/27 16:49:54;;;;;;;48.20;26.70;;;4.70;99.90;;;;;;4752750;30;20051;-79
2021/11/27 16:52:26;;;;;;;45.08;24.48;;;4.70;99.90;;;;;;4799152;29;20031;-80